createdAt,value
2019-05-22T00:00:18.305Z,14.13
2019-05-22T00:02:47.820Z,14.15
2019-05-22T00:05:17.936Z,15.38
2019-05-22T00:07:47.981Z,16.97
2019-05-22T00:10:19.552Z,20.95
2019-05-22T00:12:49.379Z,21.20
2019-05-22T00:15:18.778Z,21.65
2019-05-22T00:17:49.250Z,21.65
2019-05-22T00:20:20.212Z,23.98
2019-05-22T00:22:51.080Z,24.98
2019-05-22T00:25:24.251Z,26.00
2019-05-22T00:27:56.182Z,29.77
2019-05-22T00:30:28.944Z,31.12
2019-05-22T00:33:00.430Z,29.87
2019-05-22T00:35:29.252Z,35.55
2019-05-22T00:37:57.895Z,34.48
2019-05-22T00:40:28.885Z,36.70
2019-05-22T00:43:04.078Z,36.15
2019-05-22T00:45:31.312Z,34.58
2019-05-22T00:48:00.335Z,36.90
2019-05-22T00:50:33.217Z,35.65
2019-05-22T00:53:05.064Z,40.90
2019-05-22T00:55:47.410Z,36.53
2019-05-22T00:58:21.404Z,38.53
2019-05-22T01:00:54.214Z,37.40
2019-05-22T01:03:24.782Z,40.25
2019-05-22T01:05:54.962Z,39.75
2019-05-22T01:08:25.885Z,38.73
2019-05-22T01:10:56.200Z,35.05
2019-05-22T01:13:27.393Z,38.13
2019-05-22T01:15:58.104Z,36.58
2019-05-22T01:18:28.295Z,34.43
2019-05-22T01:20:59.683Z,35.03
2019-05-22T01:23:30.375Z,31.65
2019-05-22T01:26:01.191Z,31.75
2019-05-22T01:28:30.190Z,32.25
2019-05-22T01:31:00.730Z,32.03
2019-05-22T01:33:35.220Z,33.65
2019-05-22T01:36:05.942Z,29.95
2019-05-22T01:38:35.900Z,29.80
2019-05-22T01:41:11.558Z,33.38
2019-05-22T01:43:40.117Z,31.77
2019-05-22T01:46:09.739Z,32.95
2019-05-22T01:48:40.475Z,32.38
2019-05-22T01:51:11.289Z,31.55
2019-05-22T01:53:44.277Z,31.70
2019-05-22T01:56:13.720Z,33.73
2019-05-22T01:58:45.520Z,32.23
2019-05-22T02:01:20.582Z,34.65
2019-05-22T02:03:50.705Z,33.33
2019-05-22T02:06:21.823Z,32.63
2019-05-22T02:08:53.258Z,32.60
2019-05-22T02:11:23.400Z,34.33
2019-05-22T02:13:55.083Z,33.25
2019-05-22T02:16:24.338Z,32.48
2019-05-22T02:18:53.866Z,33.33
2019-05-22T02:21:23.810Z,34.78
2019-05-22T02:23:52.658Z,37.60
2019-05-22T02:26:22.306Z,34.58
2019-05-22T02:28:50.848Z,32.93
2019-05-22T02:31:23.581Z,38.73
2019-05-22T02:34:02.892Z,35.78
2019-05-22T02:36:33.000Z,35.68
2019-05-22T02:39:01.491Z,32.38
2019-05-22T02:41:34.703Z,35.73
2019-05-22T02:44:03.398Z,35.83
2019-05-22T02:46:32.039Z,32.85
2019-05-22T02:49:01.967Z,38.75
2019-05-22T02:51:30.845Z,34.58
2019-05-22T02:54:00.272Z,36.95
2019-05-22T02:56:29.219Z,32.88
2019-05-22T02:58:57.773Z,31.00
2019-05-22T03:01:27.225Z,34.38
2019-05-22T03:03:55.784Z,32.50
2019-05-22T03:06:24.470Z,36.68
2019-05-22T03:08:59.645Z,44.18
2019-05-22T03:11:32.875Z,36.45
2019-05-22T03:14:03.485Z,42.38
2019-05-22T03:16:36.249Z,39.33
2019-05-22T03:19:08.798Z,38.58
2019-05-22T03:21:36.745Z,42.35
2019-05-22T03:24:05.699Z,41.90
2019-05-22T03:26:43.568Z,41.75
2019-05-22T03:29:15.442Z,54.98
2019-05-22T03:31:45.162Z,52.83
2019-05-22T03:34:14.331Z,59.85
2019-05-22T03:36:43.425Z,56.68
2019-05-22T03:39:12.674Z,56.37
2019-05-22T03:41:41.827Z,60.38
2019-05-22T03:44:11.638Z,60.92
2019-05-22T03:46:44.506Z,63.20
2019-05-22T03:49:28.948Z,63.42
2019-05-22T03:51:49.339Z,65.30
2019-05-22T03:54:19.715Z,62.08
2019-05-22T03:56:49.429Z,57.23
2019-05-22T03:59:17.935Z,55.88
2019-05-22T04:01:46.652Z,47.03
2019-05-22T04:04:18.196Z,47.43
2019-05-22T04:06:48.112Z,46.88
2019-05-22T04:09:20.234Z,46.20
2019-05-22T04:11:49.755Z,40.95
2019-05-22T04:14:19.522Z,39.40
2019-05-22T04:16:48.921Z,39.38
2019-05-22T04:19:17.611Z,41.40
2019-05-22T04:21:46.731Z,38.15
2019-05-22T04:24:15.679Z,29.80
2019-05-22T04:26:44.156Z,30.50
2019-05-22T04:29:14.246Z,31.82
2019-05-22T04:31:58.448Z,30.05
2019-05-22T04:34:27.587Z,30.57
2019-05-22T04:36:56.210Z,29.75
2019-05-22T04:39:27.380Z,31.70
2019-05-22T04:41:58.927Z,32.17
2019-05-22T04:44:28.051Z,33.38
2019-05-22T04:46:57.141Z,38.92
2019-05-22T04:49:26.030Z,30.37
2019-05-22T04:51:54.753Z,36.73
2019-05-22T04:54:23.839Z,33.33
2019-05-22T04:56:53.521Z,37.13
2019-05-22T04:59:22.130Z,34.53
2019-05-22T05:01:51.056Z,33.53
2019-05-22T05:04:19.796Z,41.85
2019-05-22T05:06:49.885Z,39.83
2019-05-22T05:09:18.948Z,42.65
2019-05-22T05:11:47.599Z,43.35
2019-05-22T05:14:16.248Z,42.62
2019-05-22T05:16:44.814Z,56.13
2019-05-22T05:19:13.470Z,67.82
2019-05-22T05:21:42.168Z,65.47
2019-05-22T05:24:10.916Z,66.77
2019-05-22T05:26:40.260Z,57.03
2019-05-22T05:29:12.477Z,59.27
2019-05-22T05:31:41.357Z,58.45
2019-05-22T05:34:30.963Z,56.00
2019-05-22T05:37:02.091Z,54.88
2019-05-22T05:39:40.249Z,42.08
2019-05-22T05:42:09.084Z,46.77
2019-05-22T05:44:37.642Z,42.93
2019-05-22T05:47:07.481Z,42.98
2019-05-22T05:49:36.045Z,40.65
2019-05-22T05:52:06.298Z,41.57
2019-05-22T05:54:35.330Z,45.33
2019-05-22T05:57:29.898Z,42.60
2019-05-22T05:59:58.570Z,38.42
2019-05-22T06:02:27.725Z,38.50
2019-05-22T06:04:56.272Z,37.05
2019-05-22T06:07:25.026Z,34.25
2019-05-22T06:10:13.256Z,32.53
2019-05-22T06:12:42.083Z,33.37
2019-05-22T06:15:10.645Z,35.10
2019-05-22T06:18:07.716Z,33.20
2019-05-22T06:20:36.967Z,29.72
2019-05-22T06:23:26.349Z,29.40
2019-05-22T06:25:57.169Z,29.73
2019-05-22T06:28:28.467Z,26.03
2019-05-22T06:31:02.379Z,21.95
2019-05-22T06:33:35.038Z,22.67
2019-05-22T06:36:07.433Z,23.45
2019-05-22T06:38:41.922Z,20.97
2019-05-22T06:41:12.687Z,23.32
2019-05-22T06:43:47.372Z,20.50
2019-05-22T06:46:18.938Z,18.93
2019-05-22T06:48:47.540Z,16.77
2019-05-22T06:51:19.380Z,14.58
2019-05-22T06:53:46.407Z,14.15
2019-05-22T06:56:14.918Z,13.85
2019-05-22T06:58:43.527Z,13.70
2019-05-22T07:01:12.274Z,15.27
2019-05-22T07:03:41.221Z,14.90
2019-05-22T07:06:09.908Z,13.13
2019-05-22T07:08:38.387Z,15.33
2019-05-22T07:11:08.526Z,14.20
2019-05-22T07:13:37.364Z,14.53
2019-05-22T07:16:06.384Z,16.20
2019-05-22T07:18:34.894Z,12.93
2019-05-22T07:21:03.486Z,15.33
2019-05-22T07:23:33.606Z,14.97
2019-05-22T07:26:03.409Z,12.97
2019-05-22T07:28:33.351Z,12.82
2019-05-22T07:31:02.871Z,13.23
2019-05-22T07:33:32.535Z,12.13
2019-05-22T07:36:12.065Z,14.57
2019-05-22T07:38:32.434Z,12.53
2019-05-22T07:41:01.149Z,13.03
2019-05-22T07:43:29.723Z,11.35
2019-05-22T07:45:59.575Z,11.68
2019-05-22T07:48:28.997Z,10.40
2019-05-22T07:50:58.221Z,10.50
2019-05-22T07:53:27.239Z,10.03
2019-05-22T07:55:57.746Z,13.55
2019-05-22T07:58:28.554Z,10.78
2019-05-22T08:00:58.786Z,10.97
2019-05-22T08:03:28.581Z,9.83
2019-05-22T08:05:58.571Z,10.38
2019-05-22T08:08:27.799Z,6.92
2019-05-22T08:10:57.990Z,8.58
2019-05-22T08:13:27.193Z,6.80
2019-05-22T08:15:55.942Z,7.28
2019-05-22T08:18:25.984Z,8.43
2019-05-22T08:20:54.465Z,6.53
2019-05-22T08:23:23.422Z,5.30
2019-05-22T08:25:52.224Z,6.20
2019-05-22T08:28:21.450Z,6.10
2019-05-22T08:30:50.367Z,6.80
2019-05-22T08:33:20.781Z,6.60
2019-05-22T08:35:49.583Z,7.80
2019-05-22T08:38:18.592Z,7.77
2019-05-22T08:40:48.787Z,7.95
2019-05-22T08:43:17.786Z,10.25
2019-05-22T08:45:46.815Z,10.37
2019-05-22T08:48:16.734Z,12.83
2019-05-22T08:50:45.809Z,12.30
2019-05-22T08:53:16.265Z,11.13
2019-05-22T08:55:45.412Z,11.03
2019-05-22T08:58:16.613Z,12.73
2019-05-22T09:00:46.086Z,10.87
2019-05-22T09:03:15.578Z,13.17
2019-05-22T09:05:44.392Z,10.43
2019-05-22T09:08:13.017Z,10.60
2019-05-22T09:10:41.962Z,11.17
2019-05-22T09:13:10.492Z,12.57
2019-05-22T09:15:40.321Z,11.20
2019-05-22T09:18:09.309Z,10.43
2019-05-22T09:20:48.680Z,8.47
2019-05-22T09:23:09.635Z,11.00
2019-05-22T09:25:38.487Z,10.33
2019-05-22T09:28:07.246Z,10.53
2019-05-22T09:30:36.394Z,12.10
2019-05-22T09:33:05.606Z,11.20
2019-05-22T09:35:34.602Z,9.95
2019-05-22T09:38:03.266Z,12.30
2019-05-22T09:40:32.875Z,12.83
2019-05-22T09:43:02.351Z,10.43
2019-05-22T09:45:31.491Z,12.60
2019-05-22T09:48:00.215Z,12.30
2019-05-22T09:50:29.205Z,12.47
2019-05-22T09:52:58.464Z,11.30
2019-05-22T09:55:27.058Z,10.23
2019-05-22T09:57:55.840Z,11.33
2019-05-22T10:00:25.851Z,8.60
2019-05-22T10:02:54.610Z,9.03
2019-05-22T10:05:23.090Z,8.53
2019-05-22T10:08:00.577Z,11.43
2019-05-22T10:10:22.534Z,9.03
2019-05-22T10:12:51.582Z,8.67
2019-05-22T10:15:21.055Z,12.00
2019-05-22T10:17:50.185Z,9.13
2019-05-22T10:20:20.965Z,12.20
2019-05-22T10:22:49.683Z,7.67
2019-05-22T10:25:18.558Z,7.67
2019-05-22T10:27:48.355Z,6.83
2019-05-22T10:30:20.794Z,5.60
2019-05-22T10:32:50.150Z,6.43
2019-05-22T10:35:22.331Z,6.43
2019-05-22T10:37:51.086Z,6.97
2019-05-22T10:40:20.685Z,6.33
2019-05-22T10:42:49.328Z,7.43
2019-05-22T10:45:18.043Z,5.40
2019-05-22T10:47:48.062Z,7.83
2019-05-22T10:50:16.674Z,6.15
2019-05-22T10:52:45.179Z,5.77
2019-05-22T10:55:14.361Z,8.05
2019-05-22T10:57:44.585Z,8.78
2019-05-22T11:00:16.029Z,8.23
2019-05-22T11:02:44.889Z,8.57
2019-05-22T11:05:13.899Z,8.60
2019-05-22T11:07:42.834Z,9.13
2019-05-22T11:10:12.465Z,11.15
2019-05-22T11:12:41.177Z,12.23
2019-05-22T11:15:11.262Z,9.70
2019-05-22T11:17:39.904Z,12.53
2019-05-22T11:20:09.925Z,11.27
2019-05-22T11:22:38.732Z,11.57
2019-05-22T11:25:11.125Z,12.70
2019-05-22T11:27:40.555Z,9.97
2019-05-22T11:30:14.973Z,13.20
2019-05-22T11:32:44.064Z,11.27
2019-05-22T11:35:14.083Z,8.27
2019-05-22T11:37:42.831Z,9.67
2019-05-22T11:40:11.869Z,10.33
2019-05-22T11:42:40.425Z,10.33
2019-05-22T11:45:12.147Z,10.10
2019-05-22T11:47:41.958Z,11.70
2019-05-22T11:50:12.576Z,12.03
2019-05-22T11:52:42.056Z,10.50
2019-05-22T11:55:12.988Z,9.57
2019-05-22T11:57:42.905Z,12.90
2019-05-22T12:00:12.651Z,13.27
2019-05-22T12:02:41.198Z,9.65
2019-05-22T12:05:10.691Z,10.38
2019-05-22T12:07:41.771Z,8.83
2019-05-22T12:10:11.666Z,9.30
2019-05-22T12:12:40.478Z,7.97
2019-05-22T12:15:11.805Z,8.53
2019-05-22T12:17:40.594Z,9.53
2019-05-22T12:20:11.011Z,10.47
2019-05-22T12:22:39.686Z,12.30
2019-05-22T12:25:10.635Z,14.73
2019-05-22T12:27:39.195Z,17.77
2019-05-22T12:30:08.444Z,21.37
2019-05-22T12:32:38.098Z,19.97
2019-05-22T12:35:07.716Z,21.03
2019-05-22T12:37:36.486Z,18.97
2019-05-22T12:40:07.804Z,17.83
2019-05-22T12:42:36.700Z,16.17
2019-05-22T12:45:07.295Z,18.10
2019-05-22T12:47:36.084Z,15.97
2019-05-22T12:50:07.199Z,15.23
2019-05-22T12:52:35.919Z,14.93
2019-05-22T12:55:06.848Z,14.30
2019-05-22T12:57:35.586Z,13.13
2019-05-22T13:00:07.499Z,13.33
2019-05-22T13:02:42.232Z,16.63
2019-05-22T13:05:14.537Z,12.93
2019-05-22T13:07:42.299Z,14.73
2019-05-22T13:10:11.169Z,11.00
2019-05-22T13:12:39.985Z,11.37
2019-05-22T13:15:10.967Z,11.43
2019-05-22T13:17:40.947Z,12.87
2019-05-22T13:20:12.592Z,12.10
2019-05-22T13:22:47.728Z,11.60
2019-05-22T13:25:18.855Z,14.70
2019-05-22T13:27:48.704Z,17.30
2019-05-22T13:30:19.092Z,12.40
2019-05-22T13:32:48.926Z,14.23
2019-05-22T13:35:17.766Z,14.27
2019-05-22T13:37:46.379Z,18.10
2019-05-22T13:40:26.992Z,14.70
2019-05-22T13:42:45.426Z,14.47
2019-05-22T13:45:28.379Z,13.13
2019-05-22T13:47:45.484Z,12.77
2019-05-22T13:50:16.136Z,13.70
2019-05-22T13:52:44.949Z,15.87
2019-05-22T13:55:13.792Z,13.83
2019-05-22T13:57:42.747Z,13.80
2019-05-22T14:00:15.954Z,13.60
2019-05-22T14:02:44.504Z,14.13
2019-05-22T14:05:14.026Z,11.50
2019-05-22T14:07:42.601Z,12.07
2019-05-22T14:10:11.432Z,14.83
2019-05-22T14:12:39.912Z,11.63
2019-05-22T14:15:08.970Z,12.30
2019-05-22T14:17:37.866Z,12.53
2019-05-22T14:20:08.952Z,11.50
2019-05-22T14:22:37.671Z,11.60
2019-05-22T14:25:08.488Z,12.87
2019-05-22T14:27:41.330Z,12.27
2019-05-22T14:30:08.296Z,11.03
2019-05-22T14:32:37.438Z,10.67
2019-05-22T14:35:06.674Z,12.43
2019-05-22T14:37:35.885Z,10.40
2019-05-22T14:40:07.374Z,11.63
2019-05-22T14:42:36.013Z,14.13
2019-05-22T14:45:06.149Z,12.13
2019-05-22T14:47:34.640Z,10.13
2019-05-22T14:50:03.656Z,11.73
2019-05-22T14:52:32.729Z,11.13
2019-05-22T14:55:01.391Z,11.57
2019-05-22T14:57:30.045Z,11.83
2019-05-22T14:59:58.992Z,11.03
2019-05-22T15:02:28.610Z,10.87
2019-05-22T15:04:58.241Z,13.57
2019-05-22T15:07:26.797Z,13.23
2019-05-22T15:09:55.331Z,9.87
2019-05-22T15:12:23.973Z,10.50
2019-05-22T15:14:52.917Z,13.50
2019-05-22T15:17:32.321Z,11.57
2019-05-22T15:19:52.280Z,11.33
2019-05-22T15:22:20.951Z,9.43
2019-05-22T15:24:49.772Z,11.07
2019-05-22T15:27:19.061Z,10.03
2019-05-22T15:29:47.553Z,9.53
2019-05-22T15:32:17.547Z,11.40
2019-05-22T15:34:46.969Z,9.80
2019-05-22T15:37:18.615Z,9.97
2019-05-22T15:39:48.235Z,11.97
2019-05-22T15:42:40.622Z,11.03
2019-05-22T15:45:12.250Z,12.67
2019-05-22T15:47:54.867Z,12.27
2019-05-22T15:50:15.775Z,10.93
2019-05-22T15:52:48.429Z,8.50
2019-05-22T15:55:19.445Z,12.53
2019-05-22T15:57:48.012Z,8.93
2019-05-22T16:00:19.407Z,8.97
2019-05-22T16:02:49.631Z,10.53
2019-05-22T16:05:19.528Z,10.17
2019-05-22T16:07:50.319Z,10.20
2019-05-22T16:10:22.718Z,12.47
2019-05-22T16:12:52.964Z,13.27
2019-05-22T16:15:25.134Z,12.83
2019-05-22T16:18:10.597Z,10.03
2019-05-22T16:20:27.244Z,10.27
2019-05-22T16:22:56.825Z,11.57
2019-05-22T16:25:26.361Z,11.47
2019-05-22T16:27:56.043Z,13.20
2019-05-22T16:30:26.288Z,12.33
2019-05-22T16:32:56.410Z,12.63
2019-05-22T16:35:26.129Z,9.77
2019-05-22T16:37:55.071Z,11.57
2019-05-22T16:40:24.122Z,10.43
2019-05-22T16:42:53.449Z,16.33
2019-05-22T16:45:23.935Z,11.47
2019-05-22T16:47:53.994Z,12.00
2019-05-22T16:50:24.973Z,11.57
2019-05-22T16:52:54.463Z,10.57
2019-05-22T16:55:24.970Z,11.80
2019-05-22T16:57:54.758Z,13.30
2019-05-22T17:00:23.870Z,15.23
2019-05-22T17:02:52.787Z,14.23
2019-05-22T17:05:22.544Z,13.93
2019-05-22T17:07:51.597Z,13.60
2019-05-22T17:10:21.205Z,16.47
2019-05-22T17:12:49.867Z,18.03
2019-05-22T17:15:19.489Z,14.23
2019-05-22T17:17:48.698Z,17.20
2019-05-22T17:20:19.781Z,16.43
2019-05-22T17:22:48.404Z,16.23
2019-05-22T17:25:20.118Z,15.60
2019-05-22T17:27:49.422Z,15.30
2019-05-22T17:30:21.435Z,18.07
2019-05-22T17:32:50.061Z,15.47
2019-05-22T17:35:20.290Z,18.07
2019-05-22T17:37:49.304Z,18.50
2019-05-22T17:40:20.416Z,19.80
2019-05-22T17:42:51.075Z,19.93
2019-05-22T17:45:21.169Z,21.50
2019-05-22T17:47:51.050Z,21.57
2019-05-22T17:50:26.804Z,19.30
2019-05-22T17:52:50.692Z,20.03
2019-05-22T17:55:21.217Z,20.47
2019-05-22T17:57:49.838Z,20.93
2019-05-22T18:00:25.387Z,23.43
2019-05-22T18:02:53.866Z,20.27
2019-05-22T18:05:22.928Z,19.50
2019-05-22T18:07:51.397Z,18.33
2019-05-22T18:10:20.412Z,19.10
2019-05-22T18:12:49.065Z,15.37
2019-05-22T18:15:19.504Z,17.50
2019-05-22T18:17:48.789Z,18.03
2019-05-22T18:20:18.805Z,18.10
2019-05-22T18:22:47.625Z,19.93
2019-05-22T18:25:16.844Z,19.03
2019-05-22T18:27:45.956Z,21.07
2019-05-22T18:30:14.703Z,23.93
2019-05-22T18:32:43.519Z,20.83
2019-05-22T18:35:13.435Z,21.57
2019-05-22T18:37:42.014Z,22.50
2019-05-22T18:40:11.502Z,22.03
2019-05-22T18:42:40.095Z,20.20
2019-05-22T18:45:08.800Z,18.70
2019-05-22T18:47:37.381Z,20.20
2019-05-22T18:50:07.702Z,20.00
2019-05-22T18:52:41.181Z,18.87
2019-05-22T18:55:08.554Z,18.50
2019-05-22T18:57:37.764Z,18.47
2019-05-22T19:00:08.061Z,17.83
2019-05-22T19:02:36.875Z,18.73
2019-05-22T19:05:07.074Z,17.97
2019-05-22T19:07:35.738Z,13.23
2019-05-22T19:10:07.164Z,15.03
2019-05-22T19:12:35.911Z,12.93
2019-05-22T19:15:08.909Z,14.90
2019-05-22T19:17:37.487Z,13.20
2019-05-22T19:20:09.365Z,12.20
2019-05-22T19:22:38.777Z,11.67
2019-05-22T19:25:07.689Z,13.40
2019-05-22T19:27:36.429Z,12.87
2019-05-22T19:30:06.344Z,13.67
2019-05-22T19:32:35.400Z,12.17
2019-05-22T19:35:05.130Z,14.00
2019-05-22T19:37:33.648Z,14.77
2019-05-22T19:40:02.292Z,12.00
2019-05-22T19:42:31.035Z,11.80
2019-05-22T19:44:59.523Z,15.33
2019-05-22T19:47:28.377Z,13.57
2019-05-22T19:49:57.153Z,13.90
2019-05-22T19:52:40.466Z,16.90
2019-05-22T19:54:56.784Z,15.47
2019-05-22T19:57:25.287Z,16.40
2019-05-22T19:59:53.768Z,14.57
2019-05-22T20:02:23.119Z,15.70
2019-05-22T20:04:52.219Z,16.63
2019-05-22T20:07:21.424Z,16.33
2019-05-22T20:09:50.460Z,20.13
2019-05-22T20:12:19.846Z,16.37
2019-05-22T20:14:48.490Z,17.80
2019-05-22T20:17:16.998Z,18.33
2019-05-22T20:19:46.108Z,19.10
2019-05-22T20:22:15.234Z,22.10
2019-05-22T20:24:43.963Z,22.10
2019-05-22T20:27:12.942Z,19.97
2019-05-22T20:29:41.821Z,17.73
2019-05-22T20:32:13.434Z,18.80
2019-05-22T20:34:42.534Z,18.00
2019-05-22T20:37:11.379Z,25.43
2019-05-22T20:39:39.923Z,21.53
2019-05-22T20:42:09.176Z,20.97
2019-05-22T20:44:39.167Z,17.57
2019-05-22T20:47:10.548Z,20.23
2019-05-22T20:49:41.986Z,20.57
2019-05-22T20:52:11.833Z,17.03
2019-05-22T20:54:40.955Z,18.83
2019-05-22T20:57:11.950Z,19.73
2019-05-22T20:59:42.048Z,20.93
2019-05-22T21:02:12.457Z,22.20
2019-05-22T21:04:43.551Z,16.77
2019-05-22T21:07:14.029Z,21.73
2019-05-22T21:09:44.282Z,17.37
2019-05-22T21:12:14.309Z,17.20
2019-05-22T21:14:42.956Z,15.27
2019-05-22T21:17:11.843Z,18.90
2019-05-22T21:19:42.064Z,16.47
2019-05-22T21:22:12.114Z,17.00
2019-05-22T21:24:41.028Z,17.57
2019-05-22T21:27:10.620Z,14.80
2019-05-22T21:29:39.485Z,14.53
2019-05-22T21:32:08.493Z,16.00
2019-05-22T21:34:38.069Z,17.10
2019-05-22T21:37:07.773Z,16.33
2019-05-22T21:39:37.018Z,16.73
2019-05-22T21:42:06.186Z,16.70
2019-05-22T21:44:35.031Z,15.70
2019-05-22T21:47:05.218Z,14.97
2019-05-22T21:49:33.893Z,15.30
2019-05-22T21:52:05.251Z,20.13
2019-05-22T21:54:33.990Z,16.10
2019-05-22T21:57:02.470Z,21.73
2019-05-22T21:59:31.117Z,20.50
2019-05-22T22:02:03.090Z,17.80
2019-05-22T22:04:33.302Z,17.17
2019-05-22T22:07:03.890Z,16.57
2019-05-22T22:09:32.541Z,19.93
2019-05-22T22:12:01.102Z,16.13
2019-05-22T22:14:31.414Z,17.53
2019-05-22T22:17:00.731Z,17.93
2019-05-22T22:19:29.773Z,15.57
2019-05-22T22:21:58.797Z,19.93
2019-05-22T22:24:27.951Z,19.67
2019-05-22T22:26:57.761Z,17.47
2019-05-22T22:29:27.739Z,15.57
2019-05-22T22:31:58.146Z,17.53
2019-05-22T22:34:30.667Z,18.33
2019-05-22T22:36:59.212Z,17.53
2019-05-22T22:39:30.131Z,15.03
2019-05-22T22:42:00.716Z,16.57
2019-05-22T22:44:29.561Z,18.67
2019-05-22T22:47:01.223Z,15.90
2019-05-22T22:49:30.174Z,15.33
2019-05-22T22:51:59.460Z,16.67
2019-05-22T22:54:28.804Z,19.23
2019-05-22T22:56:57.511Z,17.03
2019-05-22T22:59:27.050Z,17.43
2019-05-22T23:01:57.319Z,18.73
2019-05-22T23:04:27.050Z,20.47
2019-05-22T23:06:58.483Z,19.47
2019-05-22T23:09:27.664Z,16.60
2019-05-22T23:11:56.981Z,18.07
2019-05-22T23:14:27.636Z,16.50
2019-05-22T23:16:56.118Z,18.20
2019-05-22T23:19:34.294Z,17.73
2019-05-22T23:22:03.202Z,20.43
2019-05-22T23:24:32.916Z,16.13
2019-05-22T23:27:01.658Z,18.70
2019-05-22T23:29:30.824Z,17.20
2019-05-22T23:32:00.735Z,20.57
2019-05-22T23:34:29.508Z,18.20
2019-05-22T23:36:59.031Z,15.80
2019-05-22T23:39:31.715Z,19.17
2019-05-22T23:42:04.903Z,17.83
2019-05-22T23:44:35.927Z,22.13
2019-05-22T23:47:05.522Z,19.87
2019-05-22T23:49:34.903Z,20.57
2019-05-22T23:52:04.432Z,21.87
2019-05-22T23:54:32.942Z,20.47
2019-05-22T23:57:01.968Z,19.97
2019-05-22T23:59:32.852Z,19.73
